Time;durP1;ratioP1;P1;durP2;ratioP2;P2;SDS_P1;SDS_P2;PMS_P1;PMS_P2;Temp;Humidity;BMP_temperature;BMP_pressure;BME280_temperature;BME280_humidity;BME280_pressure;Samples;Min_cycle;Max_cycle;Signal;HPM_P1;HPM_P2
2022/10/10 00:01:35;;;;;;;9.90;4.83;;;;;;;15.46;59.69;98859.34;6944354;28;20209;-81
2022/10/10 00:04:58;;;;;;;7.03;4.43;;;;;;;15.45;59.39;98847.66;6949418;28;20281;-81
2022/10/10 00:08:20;;;;;;;9.27;5.00;;;;;;;15.73;59.10;98866.81;6948305;28;20306;-81
2022/10/10 00:11:41;;;;;;;7.00;4.70;;;;;;;15.57;59.29;98858.53;6949559;28;20273;-81
2022/10/10 00:15:03;;;;;;;5.53;4.60;;;;;;;15.23;60.17;98860.09;6947943;28;20366;-81
2022/10/10 00:18:25;;;;;;;7.40;6.00;;;;;;;15.23;60.15;98857.38;6948522;28;20309;-81
2022/10/10 00:21:48;;;;;;;7.67;5.37;;;;;;;15.37;59.71;98828.16;6949575;28;20205;-81
2022/10/10 00:25:10;;;;;;;5.93;5.20;;;;;;;15.59;59.56;98862.69;6950172;28;20247;-81
2022/10/10 00:28:32;;;;;;;7.40;5.00;;;;;;;15.45;59.90;98858.53;6949106;28;20308;-81
2022/10/10 00:31:53;;;;;;;12.20;5.47;;;;;;;15.64;59.44;98856.53;6949654;28;20209;-81
2022/10/10 00:35:15;;;;;;;6.87;5.10;;;;;;;15.35;59.69;98830.28;6950858;28;20253;-81
2022/10/10 00:38:37;;;;;;;6.37;5.00;;;;;;;15.60;59.60;98852.63;6951093;28;20224;-80
2022/10/10 00:41:59;;;;;;;5.73;5.23;;;;;;;15.76;59.43;98841.84;6955260;28;20274;-81
2022/10/10 00:45:26;;;;;;;5.83;5.00;;;;;;;15.52;59.76;98834.78;6975983;28;20195;-81
2022/10/10 00:48:48;;;;;;;8.07;5.00;;;;;;;15.68;59.18;98841.41;6965618;28;20288;-81
2022/10/10 00:52:11;;;;;;;6.37;5.30;;;;;;;15.84;59.07;98848.84;6947617;28;20684;-81
2022/10/10 00:55:34;;;;;;;5.63;5.07;;;;;;;15.99;58.75;98849.19;6946440;28;20774;-81
2022/10/10 00:58:58;;;;;;;5.80;5.00;;;;;;;16.03;58.54;98847.63;6945216;28;20236;-80
2022/10/10 01:02:20;;;;;;;4.87;4.37;;;;;;;16.05;58.40;98845.50;6946827;28;20757;-81
2022/10/10 01:05:42;;;;;;;6.77;4.83;;;;;;;15.96;58.08;98850.50;6946547;28;20351;-80
2022/10/10 01:09:03;;;;;;;5.57;4.57;;;;;;;15.75;58.53;98825.81;6946805;28;20233;-81
2022/10/10 01:12:31;;;;;;;5.97;5.20;;;;;;;15.64;59.51;98835.59;6947632;28;20253;-81
2022/10/10 01:15:57;;;;;;;6.37;5.77;;;;;;;15.49;60.21;98837.13;6945332;28;20245;-81
2022/10/10 01:19:42;;;;;;;10.97;6.00;;;;;;;15.52;60.44;98831.25;6945255;28;20256;-81
2022/10/10 01:23:30;;;;;;;8.73;5.50;;;;;;;15.27;60.81;98811.59;6946127;28;20199;-81
2022/10/10 01:27:24;;;;;;;8.97;5.70;;;;;;;15.59;60.05;98827.34;6946167;28;20183;-81
2022/10/10 01:30:48;;;;;;;6.20;5.60;;;;;;;15.79;59.63;98821.53;6945605;28;20258;-81
2022/10/10 01:34:14;;;;;;;8.03;5.77;;;;;;;15.57;59.51;98777.00;6945725;28;20294;-82
2022/10/10 01:37:40;;;;;;;7.00;6.17;;;;;;;15.91;58.84;98820.47;6945038;28;20289;-81
2022/10/10 01:41:06;;;;;;;7.50;5.47;;;;;;;15.78;59.76;98807.13;6945923;28;20867;-81
2022/10/10 01:44:27;;;;;;;6.93;6.20;;;;;;;15.68;60.01;98814.22;6946349;28;20275;-81
2022/10/10 01:47:51;;;;;;;8.20;6.27;;;;;;;15.66;60.00;98817.19;6947152;28;20696;-81
2022/10/10 01:51:22;;;;;;;6.43;5.33;;;;;;;15.46;60.45;98788.72;6950140;28;20809;-81
2022/10/10 01:54:51;;;;;;;6.00;5.27;;;;;;;15.69;60.37;98818.59;6948987;28;20305;-81
2022/10/10 01:58:28;;;;;;;6.40;5.80;;;;;;;15.88;59.99;98811.97;6948966;28;20226;-81
2022/10/10 02:01:54;;;;;;;7.27;5.93;;;;;;;15.96;59.35;98801.53;6928464;28;20226;-81
2022/10/10 02:05:22;;;;;;;7.67;5.63;;;;;;;15.15;60.02;98689.34;6921517;28;20204;-81
2022/10/10 02:08:46;;;;;;;8.47;6.40;;;;;;;15.96;59.60;98795.25;6925782;28;20708;-81
2022/10/10 02:12:09;;;;;;;9.70;5.73;;;;;;;15.95;59.46;98794.47;6926488;28;20228;-81
2022/10/10 02:15:36;;;;;;;9.73;5.80;;;;;;;15.94;59.25;98803.69;6925411;28;20690;-81
2022/10/10 02:18:59;;;;;;;8.87;5.93;;;;;;;15.65;60.22;98801.94;6925731;28;20316;-81
2022/10/10 02:22:23;;;;;;;9.73;5.73;;;;;;;15.42;60.23;98771.22;6927065;28;20218;-81
2022/10/10 02:25:49;;;;;;;8.40;6.13;;;;;;;15.39;61.26;98807.84;6926510;28;20250;-81
2022/10/10 02:29:12;;;;;;;7.97;6.23;;;;;;;15.52;61.23;98804.06;6924911;28;20238;-81
2022/10/10 02:32:37;;;;;;;8.97;6.40;;;;;;;15.84;60.71;98803.47;6924926;28;20689;-81
2022/10/10 02:36:00;;;;;;;7.27;6.33;;;;;;;15.73;60.30;98806.16;6924896;28;20333;-81
2022/10/10 02:39:26;;;;;;;9.00;6.17;;;;;;;15.56;60.69;98807.94;6924097;28;20232;-81
2022/10/10 02:42:49;;;;;;;7.67;6.20;;;;;;;15.46;61.05;98794.16;6924488;28;20293;-81
2022/10/10 02:46:13;;;;;;;7.90;6.33;;;;;;;15.67;60.69;98805.25;6925072;28;20213;-81
2022/10/10 02:49:35;;;;;;;8.77;6.40;;;;;;;15.93;60.21;98809.34;6923864;28;20313;-81
2022/10/10 02:52:56;;;;;;;8.87;6.43;;;;;;;15.76;60.20;98813.88;6924492;28;20239;-81
2022/10/10 02:56:19;;;;;;;8.57;7.27;;;;;;;15.17;61.16;98768.69;6923931;28;20232;-81
2022/10/10 02:59:41;;;;;;;7.40;6.30;;;;;;;15.64;61.01;98800.25;6923121;28;20230;-81
2022/10/10 03:03:02;;;;;;;8.23;6.30;;;;;;;15.78;60.42;98804.41;6923356;28;20304;-81
2022/10/10 03:06:24;;;;;;;9.97;6.07;;;;;;;15.86;59.89;98806.75;6924315;28;20303;-82
2022/10/10 03:09:45;;;;;;;9.37;5.90;;;;;;;15.80;59.87;98785.97;6923129;28;20363;-81
2022/10/10 03:13:08;;;;;;;8.33;5.80;;;;;;;15.71;59.65;98781.13;6923800;28;20201;-81
2022/10/10 03:16:30;;;;;;;7.80;6.10;;;;;;;15.79;59.96;98788.91;6923391;28;20319;-81
2022/10/10 03:19:51;;;;;;;6.97;6.10;;;;;;;15.80;59.97;98806.91;6923338;28;20228;-81
2022/10/10 03:23:13;;;;;;;11.67;6.33;;;;;;;15.52;60.56;98785.84;6923361;28;20339;-81
2022/10/10 03:26:34;;;;;;;7.40;6.07;;;;;;;15.49;61.18;98799.09;6923893;28;20342;-81
2022/10/10 03:29:57;;;;;;;8.60;7.13;;;;;;;15.46;61.25;98800.38;6923281;28;20880;-81
2022/10/10 03:33:19;;;;;;;7.00;6.27;;;;;;;15.55;60.93;98811.72;6923505;28;20200;-81
2022/10/10 03:36:40;;;;;;;8.37;6.57;;;;;;;15.76;60.73;98803.00;6924993;28;20273;-81
2022/10/10 03:40:02;;;;;;;10.13;9.07;;;;;;;15.65;60.78;98803.81;6924132;28;20258;-81
2022/10/10 03:43:23;;;;;;;8.80;8.00;;;;;;;15.69;60.67;98788.69;6922049;28;20297;-82
2022/10/10 03:46:46;;;;;;;7.10;6.50;;;;;;;15.88;60.47;98801.94;6926965;28;20349;-81
2022/10/10 03:50:08;;;;;;;9.13;6.93;;;;;;;15.72;60.87;98801.81;6922863;28;20299;-81
2022/10/10 03:53:30;;;;;;;7.43;6.30;;;;;;;15.84;59.71;98773.53;6924133;28;20287;-81
2022/10/10 03:56:52;;;;;;;8.97;6.47;;;;;;;15.65;59.84;98782.91;6923017;28;20710;-81
2022/10/10 04:00:14;;;;;;;9.23;7.00;;;;;;;15.73;60.75;98800.72;6922683;28;20316;-81
2022/10/10 04:03:37;;;;;;;8.43;7.03;;;;;;;15.77;60.39;98802.75;6927185;28;20663;-81
2022/10/10 04:06:58;;;;;;;10.50;7.03;;;;;;;15.33;61.67;98799.81;6924352;28;20208;-81
2022/10/10 04:10:20;;;;;;;8.60;7.70;;;;;;;15.47;61.53;98776.78;6924778;28;20227;-80
2022/10/10 04:13:41;;;;;;;10.23;7.07;;;;;;;15.53;61.36;98792.13;6960091;28;20219;-82
2022/10/10 04:17:03;;;;;;;7.70;6.93;;;;;;;15.62;61.21;98788.81;6967953;28;20243;-81
2022/10/10 04:20:26;;;;;;;8.30;6.70;;;;;;;15.84;60.14;98802.63;6947957;28;20313;-81
2022/10/10 04:23:47;;;;;;;7.93;6.03;;;;;;;15.65;60.55;98784.78;6949164;28;20756;-81
2022/10/10 04:27:09;;;;;;;7.53;6.53;;;;;;;15.66;60.55;98794.59;6949160;28;20233;-81
2022/10/10 04:30:32;;;;;;;7.77;6.40;;;;;;;15.26;60.63;98720.28;6946920;28;20309;-81
2022/10/10 04:33:54;;;;;;;9.37;6.40;;;;;;;15.19;61.56;98768.47;6946861;28;20317;-81
2022/10/10 04:37:17;;;;;;;9.07;7.07;;;;;;;15.58;61.14;98784.09;6946849;28;20208;-81
2022/10/10 04:40:38;;;;;;;12.00;7.70;;;;;;;15.50;61.30;98759.97;6948426;28;20329;-81
2022/10/10 04:44:00;;;;;;;12.70;7.83;;;;;;;15.58;61.32;98794.97;6947782;28;20204;-81
2022/10/10 04:47:22;;;;;;;11.77;7.30;;;;;;;15.65;60.96;98769.31;6941954;28;20209;-81
2022/10/10 04:50:43;;;;;;;7.70;6.90;;;;;;;15.84;60.45;98770.81;6954586;28;20361;-81
2022/10/10 04:54:06;;;;;;;9.33;7.30;;;;;;;15.68;60.81;98798.72;6942113;28;20235;-81
2022/10/10 04:57:28;;;;;;;8.87;7.37;;;;;;;15.70;60.73;98785.72;6939320;28;20760;-81
2022/10/10 05:00:52;;;;;;;8.70;6.97;;;;;;;15.72;60.23;98793.66;6947817;28;20322;-80
2022/10/10 05:04:13;;;;;;;10.73;6.87;;;;;;;15.67;60.18;98788.09;6950077;28;20657;-81
2022/10/10 05:07:35;;;;;;;8.83;7.10;;;;;;;15.33;60.59;98773.47;6946043;28;20211;-81
2022/10/10 05:10:58;;;;;;;8.23;6.70;;;;;;;15.42;60.76;98785.66;6946226;28;20361;-81
2022/10/10 05:14:19;;;;;;;9.47;7.07;;;;;;;15.28;61.71;98794.22;6946889;28;20289;-81
2022/10/10 05:17:41;;;;;;;8.43;6.67;;;;;;;15.22;61.92;98787.81;6948154;28;20291;-81
2022/10/10 05:21:02;;;;;;;11.77;7.10;;;;;;;15.10;61.76;98753.59;6948966;28;20864;-81
2022/10/10 05:24:24;;;;;;;7.00;6.30;;;;;;;15.27;61.65;98768.94;6949177;28;20224;-80
2022/10/10 05:27:47;;;;;;;8.57;6.77;;;;;;;15.31;61.54;98782.88;6948263;28;20258;-82
2022/10/10 05:31:09;;;;;;;9.93;7.30;;;;;;;15.26;61.37;98789.03;6949134;28;20346;-82
2022/10/10 05:34:31;;;;;;;9.07;7.83;;;;;;;15.35;61.42;98789.53;6949140;28;20285;-81
2022/10/10 05:37:52;;;;;;;8.83;7.80;;;;;;;14.21;63.92;98780.81;6948527;28;20362;-81
2022/10/10 05:41:15;;;;;;;8.70;7.17;;;;;;;15.19;62.59;98801.06;6950259;28;20285;-80
2022/10/10 05:44:37;;;;;;;9.70;7.87;;;;;;;15.27;62.04;98803.44;6957991;28;20199;-81
2022/10/10 05:47:59;;;;;;;9.43;8.00;;;;;;;15.05;61.74;98770.56;6953908;28;20706;-81
2022/10/10 05:51:21;;;;;;;8.03;7.17;;;;;;;15.10;63.24;98794.31;6954429;28;20443;-80
2022/10/10 05:54:42;;;;;;;10.50;7.00;;;;;;;15.38;61.87;98808.06;6953223;28;20314;-80
2022/10/10 05:58:05;;;;;;;8.40;7.40;;;;;;;15.31;61.63;98789.16;6952858;28;20295;-80
2022/10/10 06:01:28;;;;;;;8.90;7.50;;;;;;;15.45;61.22;98814.22;6948055;28;20207;-81
2022/10/10 06:04:49;;;;;;;8.47;7.63;;;;;;;14.97;62.73;98802.66;6953721;28;20208;-80
2022/10/10 06:08:11;;;;;;;9.33;7.33;;;;;;;15.34;62.02;98813.16;6953560;28;20637;-81
2022/10/10 06:11:32;;;;;;;9.20;7.97;;;;;;;15.46;61.60;98824.84;6953382;28;20678;-79
2022/10/10 06:14:54;;;;;;;13.70;8.47;;;;;;;15.56;61.66;98832.41;6951790;28;20251;-80
2022/10/10 06:18:16;;;;;;;10.47;8.83;;;;;;;15.16;62.68;98817.84;6952704;28;20214;-80
2022/10/10 06:21:38;;;;;;;7.93;7.13;;;;;;;15.51;62.25;98824.97;6955488;28;20342;-82
2022/10/10 06:24:59;;;;;;;8.30;7.43;;;;;;;15.93;61.33;98814.78;6953188;28;20290;-80
2022/10/10 06:28:21;;;;;;;9.83;6.90;;;;;;;16.11;60.15;98822.81;6951467;28;20270;-80
2022/10/10 06:31:43;;;;;;;11.57;7.37;;;;;;;15.51;61.00;98824.97;6954095;28;20341;-80
2022/10/10 06:35:07;;;;;;;14.83;7.67;;;;;;;15.49;61.17;98780.06;6951985;28;20261;-80
2022/10/10 06:38:29;;;;;;;8.93;6.87;;;;;;;16.09;60.40;98831.19;6954504;28;20302;-80
2022/10/10 06:41:50;;;;;;;11.33;7.40;;;;;;;15.74;61.31;98838.56;6952657;28;20223;-79
2022/10/10 06:45:12;;;;;;;8.37;7.13;;;;;;;16.19;60.47;98834.13;6953550;28;20223;-79
2022/10/10 06:48:34;;;;;;;13.50;7.53;;;;;;;16.17;60.43;98835.44;6952653;28;20793;-81
2022/10/10 06:51:57;;;;;;;11.07;7.07;;;;;;;16.41;59.49;98837.91;6954156;28;20580;-81
2022/10/10 06:55:19;;;;;;;7.93;6.30;;;;;;;16.27;59.59;98841.09;6952044;28;20227;-79
2022/10/10 06:58:40;;;;;;;8.37;6.37;;;;;;;16.39;59.90;98858.25;6951522;28;20257;-79
2022/10/10 07:02:05;;;;;;;9.23;7.30;;;;;;;16.61;60.81;98868.25;6951560;28;20212;-80
2022/10/10 07:05:27;;;;;;;10.90;7.53;;;;;;;16.98;58.19;98866.78;6953686;28;20291;-80
2022/10/10 07:08:49;;;;;;;8.73;6.90;;;;;;;17.17;58.12;98862.75;6952241;28;20292;-80
2022/10/10 07:12:11;;;;;;;10.30;7.63;;;;;;;16.93;58.95;98857.69;6926235;28;20251;-80
2022/10/10 07:15:33;;;;;;;9.03;7.20;;;;;;;16.97;59.28;98854.22;6949393;28;20610;-80
2022/10/10 07:18:55;;;;;;;9.17;7.00;;;;;;;17.50;58.00;98856.53;6950896;28;20225;-80
2022/10/10 07:22:16;;;;;;;7.20;6.50;;;;;;;17.97;56.94;98868.72;6952597;28;20239;-80
2022/10/10 07:25:40;;;;;;;17.93;14.57;;;;;;;18.32;55.77;98871.97;6955922;28;20203;-80
2022/10/10 07:29:01;;;;;;;6.63;5.87;;;;;;;18.48;55.15;98866.50;6952375;28;20640;-80
2022/10/10 07:32:23;;;;;;;7.90;5.80;;;;;;;17.95;56.46;98862.69;6934435;28;20234;-80
2022/10/10 07:35:52;;;;;;;11.30;6.67;;;;;;;18.14;56.59;98866.78;6948244;28;20316;-80
2022/10/10 07:39:14;;;;;;;7.97;7.17;;;;;;;18.15;57.39;98869.28;6949978;28;20688;-80
2022/10/10 07:42:37;;;;;;;8.73;6.90;;;;;;;18.52;57.06;98875.81;6951414;28;20234;-81
2022/10/10 07:45:58;;;;;;;10.27;7.10;;;;;;;18.88;56.29;98868.88;6958836;28;20253;-80
2022/10/10 07:49:20;;;;;;;6.83;5.63;;;;;;;19.62;53.87;98876.16;6957550;28;20231;-80
2022/10/10 07:52:41;;;;;;;11.27;6.27;;;;;;;19.76;53.81;98861.78;6951914;28;20261;-78
2022/10/10 07:56:04;;;;;;;8.93;6.03;;;;;;;20.19;51.98;98868.94;6950637;28;20704;-79
2022/10/10 07:59:27;;;;;;;9.17;5.70;;;;;;;20.49;52.57;98866.38;6949036;28;20347;-78
2022/10/10 08:02:49;;;;;;;5.63;5.00;;;;;;;20.63;52.34;98862.06;6943976;28;20340;-79
2022/10/10 08:06:12;;;;;;;7.57;5.33;;;;;;;21.58;49.91;98866.66;6958536;28;20215;-79
2022/10/10 08:09:34;;;;;;;7.27;5.70;;;;;;;21.47;49.16;98869.66;6947756;28;20310;-79
2022/10/10 08:12:56;;;;;;;8.57;5.20;;;;;;;21.27;50.12;98871.59;6948431;28;20297;-78
2022/10/10 08:16:20;;;;;;;6.93;4.90;;;;;;;21.36;50.10;98863.34;6948142;28;20219;-79
2022/10/10 08:19:41;;;;;;;8.10;5.17;;;;;;;21.36;50.70;98876.25;6948594;28;20230;-79
2022/10/10 08:23:03;;;;;;;8.27;4.90;;;;;;;21.40;50.17;98867.22;6949418;28;20250;-78
2022/10/10 08:26:25;;;;;;;6.27;4.60;;;;;;;21.17;51.59;98872.38;6949748;28;20374;-79
2022/10/10 08:29:46;;;;;;;7.57;5.30;;;;;;;21.33;50.89;98840.34;6947969;28;20231;-80
2022/10/10 08:33:09;;;;;;;5.20;4.70;;;;;;;21.56;50.75;98871.63;6948893;28;20285;-79
2022/10/10 08:36:31;;;;;;;6.47;4.87;;;;;;;21.58;49.80;98865.84;6948840;28;20358;-80
2022/10/10 08:39:52;;;;;;;5.13;4.47;;;;;;;21.77;49.88;98870.53;6948026;28;20255;-79
2022/10/10 08:43:20;;;;;;;7.33;4.80;;;;;;;21.83;49.21;98858.44;6947969;28;20271;-80
2022/10/10 08:46:44;;;;;;;7.70;4.60;;;;;;;21.80;48.94;98864.50;6948642;28;20570;-81
2022/10/10 08:50:15;;;;;;;8.00;4.90;;;;;;;22.10;48.90;98860.88;6949271;28;20717;-80
2022/10/10 08:53:40;;;;;;;5.37;4.53;;;;;;;22.19;48.77;98848.25;6950809;28;20195;-80
2022/10/10 08:57:06;;;;;;;8.73;4.83;;;;;;;21.95;49.26;98850.75;6946490;28;20233;-80
2022/10/10 09:00:32;;;;;;;7.03;4.83;;;;;;;22.64;48.16;98859.09;6947736;28;20226;-80
2022/10/10 09:03:54;;;;;;;7.77;4.67;;;;;;;22.47;47.79;98862.19;6948641;28;20191;-79
2022/10/10 09:07:24;;;;;;;7.47;4.83;;;;;;;22.54;48.78;98859.97;6949132;28;20677;-80
2022/10/10 09:10:53;;;;;;;5.10;4.70;;;;;;;22.85;47.72;98852.41;6948698;28;20229;-79
2022/10/10 09:14:24;;;;;;;7.27;4.53;;;;;;;23.21;46.71;98853.88;6945800;28;20646;-79
2022/10/10 09:17:51;;;;;;;5.03;3.77;;;;;;;23.03;47.02;98860.84;6946377;28;20220;-79
2022/10/10 09:21:17;;;;;;;6.80;3.80;;;;;;;22.58;48.15;98871.22;6921659;28;20742;-79
2022/10/10 09:24:42;;;;;;;6.27;3.30;;;;;;;22.07;48.66;98865.00;6921110;28;20190;-79
2022/10/10 09:28:08;;;;;;;7.60;4.20;;;;;;;22.36;48.41;98867.97;6927586;28;20666;-79
2022/10/10 09:31:33;;;;;;;5.50;3.53;;;;;;;22.83;47.60;98871.94;6949031;28;20219;-79
2022/10/10 09:34:59;;;;;;;7.03;3.97;;;;;;;23.00;47.45;98879.81;6947531;28;20238;-80
2022/10/10 09:38:32;;;;;;;5.80;3.60;;;;;;;22.02;48.71;98877.94;6946326;28;20298;-79
2022/10/10 09:41:58;;;;;;;7.77;3.97;;;;;;;22.47;49.25;98897.06;6940346;28;20215;-79
2022/10/10 09:45:24;;;;;;;6.23;3.70;;;;;;;22.72;48.25;98889.56;6947826;28;20258;-80
2022/10/10 09:48:46;;;;;;;4.13;2.93;;;;;;;23.00;47.71;98891.66;6932957;28;20234;-82
2022/10/10 09:52:22;;;;;;;4.67;3.43;;;;;;;22.88;47.99;98866.41;6952568;28;20205;-81
2022/10/10 09:55:45;;;;;;;6.23;3.97;;;;;;;23.13;47.20;98891.03;6947930;28;20213;-84
2022/10/10 09:59:37;;;;;;;4.97;3.23;;;;;;;22.78;48.63;98893.94;6950317;28;20322;-82
2022/10/10 10:03:11;;;;;;;9.53;4.40;;;;;;;22.34;49.62;98884.72;6945083;28;20796;-81
2022/10/10 10:06:32;;;;;;;7.17;4.13;;;;;;;23.15;48.09;98872.31;6948597;28;20204;-82
2022/10/10 10:09:57;;;;;;;4.03;3.27;;;;;;;23.77;45.70;98855.09;6948068;28;20281;-81
2022/10/10 10:13:21;;;;;;;3.90;3.17;;;;;;;24.95;44.71;98892.72;6948393;28;20614;-82
2022/10/10 10:16:44;;;;;;;4.57;3.13;;;;;;;25.00;43.32;98878.03;6947222;28;20311;-81
2022/10/10 10:20:31;;;;;;;5.07;3.30;;;;;;;25.00;44.03;98883.53;6929868;28;20238;-80
2022/10/10 10:23:55;;;;;;;5.37;3.23;;;;;;;25.77;42.71;98880.22;6939627;28;20295;-82
2022/10/10 10:27:21;;;;;;;4.53;3.17;;;;;;;26.07;42.03;98874.22;6947436;28;20288;-83
2022/10/10 10:30:45;;;;;;;4.20;2.87;;;;;;;26.52;40.97;98881.63;6952671;28;20269;-82
2022/10/10 10:34:16;;;;;;;4.80;3.30;;;;;;;26.14;40.87;98872.66;6953278;28;20207;-81
2022/10/10 10:37:47;;;;;;;5.23;2.70;;;;;;;26.16;40.59;98844.72;6947452;28;20309;-81
2022/10/10 10:41:13;;;;;;;4.47;2.50;;;;;;;26.16;41.84;98888.97;6954526;28;20214;-81
2022/10/10 10:44:40;;;;;;;5.10;3.17;;;;;;;26.21;42.24;98884.19;6957767;28;20289;-82
2022/10/10 10:48:09;;;;;;;5.43;3.00;;;;;;;24.97;43.66;98871.19;6935681;28;20284;-82
2022/10/10 10:51:43;;;;;;;8.73;3.13;;;;;;;25.23;43.93;98888.19;6941981;28;20840;-84
2022/10/10 10:55:24;;;;;;;4.00;3.17;;;;;;;25.56;43.23;98879.72;6929596;28;20683;-83
2022/10/10 10:59:02;;;;;;;4.67;2.70;;;;;;;25.89;42.10;98823.34;6947831;28;20230;-83
2022/10/10 11:02:34;;;;;;;3.37;3.03;;;;;;;26.47;41.61;98862.38;6937956;28;20250;-83
2022/10/10 11:06:02;;;;;;;5.10;2.80;;;;;;;26.94;40.02;98837.06;6957054;28;20240;-83
2022/10/10 11:09:28;;;;;;;4.10;2.93;;;;;;;27.22;40.10;98847.81;6957207;28;20223;-84
2022/10/10 11:12:59;;;;;;;3.23;2.47;;;;;;;27.86;38.61;98863.19;6958987;28;20233;-84
2022/10/10 11:16:25;;;;;;;4.93;2.53;;;;;;;27.67;38.25;98843.94;6953291;28;20308;-83
2022/10/10 11:19:55;;;;;;;5.03;2.53;;;;;;;26.99;39.81;98865.47;6956505;28;20278;-83
2022/10/10 11:23:20;;;;;;;4.63;2.77;;;;;;;26.70;39.36;98817.13;6954097;28;20259;-83
2022/10/10 11:26:46;;;;;;;6.63;2.60;;;;;;;25.18;43.21;98864.25;6945195;28;20199;-83
2022/10/10 11:30:14;;;;;;;3.87;2.70;;;;;;;26.39;41.06;98850.09;6933897;28;20662;-83
2022/10/10 11:33:40;;;;;;;4.77;2.90;;;;;;;27.34;39.08;98830.66;6926301;28;20211;-83
2022/10/10 11:37:06;;;;;;;6.27;2.77;;;;;;;26.77;39.49;98821.13;6926494;28;20310;-83
2022/10/10 11:40:33;;;;;;;5.67;2.73;;;;;;;26.70;39.32;98840.09;6927593;28;20246;-83
2022/10/10 11:44:00;;;;;;;4.70;2.50;;;;;;;27.10;39.22;98841.97;6927931;28;20204;-83
2022/10/10 11:47:25;;;;;;;4.10;2.90;;;;;;;27.46;37.69;98825.38;6928289;28;20262;-83
2022/10/10 11:50:51;;;;;;;4.87;2.50;;;;;;;27.66;37.62;98813.81;6926194;28;20278;-83
2022/10/10 11:54:22;;;;;;;5.40;2.70;;;;;;;27.56;36.61;98833.44;6925818;28;20203;-83
2022/10/10 11:57:47;;;;;;;6.57;2.77;;;;;;;27.49;37.31;98825.56;6949771;28;20258;-83
2022/10/10 12:01:15;;;;;;;3.50;2.63;;;;;;;27.38;36.59;98760.50;6942334;28;20251;-83
2022/10/10 12:04:37;;;;;;;6.03;3.17;;;;;;;27.12;36.90;98803.72;6930751;28;20241;-82
2022/10/10 12:08:04;;;;;;;5.07;2.53;;;;;;;27.33;37.60;98806.88;6952854;28;20233;-83
2022/10/10 12:11:30;;;;;;;5.10;2.40;;;;;;;27.17;36.66;98764.03;6956457;28;20578;-83
2022/10/10 12:14:54;;;;;;;7.53;2.43;;;;;;;27.10;36.16;98805.16;6955167;28;20250;-84
2022/10/10 12:18:25;;;;;;;7.13;2.97;;;;;;;26.98;36.62;98810.41;6953114;28;20226;-81
2022/10/10 12:21:54;;;;;;;4.40;2.80;;;;;;;27.07;38.36;98820.44;6951569;28;20677;-80
2022/10/10 12:25:25;;;;;;;7.80;3.07;;;;;;;27.10;38.32;98814.28;6951867;28;20199;-81
2022/10/10 12:28:59;;;;;;;7.53;2.60;;;;;;;27.99;36.87;98812.41;6950839;28;20270;-80
2022/10/10 12:32:27;;;;;;;6.67;2.83;;;;;;;26.79;36.85;98796.72;6952434;28;20269;-81
2022/10/10 12:35:49;;;;;;;7.60;2.50;;;;;;;27.73;35.25;98808.63;6953112;28;20203;-82
2022/10/10 12:39:40;;;;;;;6.57;3.00;;;;;;;28.39;35.78;98803.84;6954930;28;20309;-81
2022/10/10 12:43:22;;;;;;;7.17;3.03;;;;;;;27.98;36.08;98816.31;6942049;28;20688;-81
2022/10/10 12:46:44;;;;;;;7.33;3.00;;;;;;;27.68;35.62;98795.72;6928123;28;20299;-81
2022/10/10 12:50:20;;;;;;;6.30;2.97;;;;;;;28.12;35.53;98815.09;6952492;28;20224;-81
2022/10/10 12:53:47;;;;;;;7.03;2.93;;;;;;;27.99;36.45;98809.63;6955154;28;20229;-82
2022/10/10 12:57:16;;;;;;;7.93;2.97;;;;;;;28.65;34.56;98815.00;6952830;28;20692;-82
2022/10/10 13:00:43;;;;;;;7.83;3.20;;;;;;;28.05;35.74;98817.50;6957185;28;20255;-82
2022/10/10 13:04:05;;;;;;;9.50;3.10;;;;;;;27.76;36.37;98811.59;6954986;28;20278;-81
2022/10/10 13:07:27;;;;;;;7.20;3.10;;;;;;;28.50;35.16;98787.72;6953348;28;20290;-82
2022/10/10 13:11:03;;;;;;;8.43;3.13;;;;;;;28.18;35.89;98791.63;6934357;28;20219;-81
2022/10/10 13:14:27;;;;;;;5.53;3.13;;;;;;;27.41;37.11;98809.69;6952072;28;20206;-81
2022/10/10 13:17:48;;;;;;;5.27;2.93;;;;;;;28.11;35.09;98784.91;6947895;28;20227;-80
2022/10/10 13:21:13;;;;;;;6.63;3.30;;;;;;;28.55;34.41;98795.91;6952621;28;20253;-80
2022/10/10 13:24:35;;;;;;;7.73;2.90;;;;;;;28.43;35.20;98790.13;6941372;28;20350;-80
2022/10/10 13:27:58;;;;;;;12.30;3.13;;;;;;;28.13;35.08;98802.06;6920953;28;20342;-81
2022/10/10 13:31:19;;;;;;;5.20;2.93;;;;;;;27.09;36.29;98804.34;6921421;28;20282;-80
2022/10/10 13:34:43;;;;;;;7.80;3.10;;;;;;;26.57;37.29;98752.41;6922563;28;20237;-80
2022/10/10 13:38:05;;;;;;;10.80;3.67;;;;;;;26.82;36.87;98726.94;6941070;28;20751;-81
2022/10/10 13:41:27;;;;;;;5.27;3.30;;;;;;;27.43;36.16;98796.34;6948670;28;20206;-81
2022/10/10 13:44:52;;;;;;;12.30;3.20;;;;;;;26.58;37.43;98789.16;6948321;28;20814;-81
2022/10/10 13:48:19;;;;;;;6.03;3.50;;;;;;;26.86;36.55;98780.53;6948584;28;20206;-81
2022/10/10 13:51:42;;;;;;;7.97;3.20;;;;;;;26.30;38.29;98773.72;6948980;28;20292;-81
2022/10/10 13:55:15;;;;;;;10.07;3.93;;;;;;;26.14;38.56;98747.50;6948846;28;20282;-81
2022/10/10 13:58:41;;;;;;;6.90;3.27;;;;;;;26.12;39.12;98772.66;6947994;28;20228;-81
2022/10/10 14:02:11;;;;;;;13.83;4.00;;;;;;;26.55;38.14;98809.97;6950449;28;20218;-80
2022/10/10 14:05:33;;;;;;;5.63;3.10;;;;;;;26.30;38.77;98782.81;6955408;28;20828;-81
2022/10/10 14:08:56;;;;;;;6.37;3.13;;;;;;;27.16;37.90;98790.94;6926770;28;20800;-82
2022/10/10 14:12:23;;;;;;;6.97;3.00;;;;;;;27.41;37.42;98792.25;6928323;28;20225;-81
2022/10/10 14:15:46;;;;;;;7.97;3.13;;;;;;;27.49;36.77;98764.63;6952685;28;20195;-81
2022/10/10 14:19:16;;;;;;;9.27;3.23;;;;;;;26.83;38.13;98806.03;6947480;28;20298;-81
2022/10/10 14:22:37;;;;;;;8.60;3.30;;;;;;;27.21;37.27;98773.38;6952039;28;20254;-81
2022/10/10 14:25:59;;;;;;;11.33;3.40;;;;;;;27.05;38.28;98799.72;6956458;28;20204;-81
2022/10/10 14:29:21;;;;;;;8.90;3.03;;;;;;;27.31;37.14;98793.31;6952642;28;20230;-81
2022/10/10 14:32:42;;;;;;;6.20;3.17;;;;;;;27.19;37.31;98797.78;6954329;28;20207;-81
2022/10/10 14:36:06;;;;;;;6.10;3.33;;;;;;;25.92;39.34;98802.63;6954086;28;20230;-81
2022/10/10 14:39:27;;;;;;;6.17;3.20;;;;;;;26.72;38.15;98771.41;6953478;28;20226;-81
2022/10/10 14:42:49;;;;;;;6.87;2.80;;;;;;;26.66;38.13;98800.31;6953569;28;20363;-82
2022/10/10 14:46:15;;;;;;;10.20;3.03;;;;;;;27.23;37.18;98805.16;6953410;28;20350;-81
2022/10/10 14:49:37;;;;;;;7.30;3.27;;;;;;;27.23;37.12;98794.09;6952569;28;20225;-81
2022/10/10 14:53:00;;;;;;;7.63;3.10;;;;;;;26.94;36.79;98801.09;6954359;28;20234;-81
2022/10/10 14:56:21;;;;;;;7.23;3.10;;;;;;;27.13;37.63;98808.13;6954783;28;20285;-80
2022/10/10 14:59:43;;;;;;;22.67;12.43;;;;;;;26.90;36.75;98820.25;6954302;28;20377;-78
2022/10/10 15:03:04;;;;;;;8.03;3.80;;;;;;;26.72;36.96;98814.88;6953213;28;20693;-80
2022/10/10 15:06:26;;;;;;;13.07;3.33;;;;;;;27.09;36.65;98811.84;6958467;28;20218;-80
2022/10/10 15:09:49;;;;;;;15.77;3.47;;;;;;;26.92;36.73;98820.81;6955375;28;20710;-79
2022/10/10 15:13:12;;;;;;;11.77;3.27;;;;;;;26.87;36.31;98815.38;6950554;28;20231;-80
2022/10/10 15:16:34;;;;;;;10.53;3.70;;;;;;;26.76;35.83;98794.59;6950055;28;20666;-79
2022/10/10 15:19:55;;;;;;;12.23;3.77;;;;;;;26.92;36.00;98819.97;6951399;28;20725;-79
2022/10/10 15:23:17;;;;;;;9.53;4.00;;;;;;;26.90;37.98;98814.72;6953163;28;20276;-80
2022/10/10 15:26:39;;;;;;;12.73;3.53;;;;;;;25.78;42.14;98816.38;6951272;28;20241;-80
2022/10/10 15:30:01;;;;;;;7.90;3.20;;;;;;;26.21;41.84;98828.88;6950172;28;20233;-80
2022/10/10 15:33:22;;;;;;;6.87;3.53;;;;;;;26.06;42.25;98831.09;6951143;28;20276;-79
2022/10/10 15:36:44;;;;;;;8.57;3.30;;;;;;;25.79;42.72;98822.72;6951162;28;20320;-80
2022/10/10 15:40:06;;;;;;;7.93;3.63;;;;;;;25.92;42.70;98838.53;6949937;28;20273;-79
2022/10/10 15:43:30;;;;;;;8.47;3.40;;;;;;;25.40;43.50;98822.25;6938172;28;20210;-79
2022/10/10 15:46:52;;;;;;;13.23;3.63;;;;;;;25.58;44.18;98851.78;6922367;28;20837;-79
2022/10/10 15:50:13;;;;;;;9.27;3.60;;;;;;;25.60;44.11;98855.91;6922526;28;20233;-80
2022/10/10 15:53:36;;;;;;;8.67;3.50;;;;;;;24.82;46.01;98835.50;6935682;28;20223;-79
2022/10/10 15:56:57;;;;;;;5.73;3.43;;;;;;;24.87;46.08;98854.75;6950212;28;20719;-79
2022/10/10 16:00:20;;;;;;;7.20;3.80;;;;;;;25.09;45.44;98857.78;6945103;28;20246;-79